sensor_id;sensor_type;location;lat;lon;timestamp;pressure;altitude;pressure_sealevel;temperature;humidity
76519;BME280;67029;51.054;13.798;2023-05-10T00:00:18;99836.52;;;16.67;39.45
76519;BME280;67029;51.054;13.798;2023-05-10T00:02:48;99838.67;;;16.66;39.44
76519;BME280;67029;51.054;13.798;2023-05-10T00:05:18;99829.38;;;16.64;39.28
76519;BME280;67029;51.054;13.798;2023-05-10T00:07:48;99830.28;;;16.69;39.11
76519;BME280;67029;51.054;13.798;2023-05-10T00:10:18;99823.62;;;16.76;38.97
76519;BME280;67029;51.054;13.798;2023-05-10T00:12:48;99824.34;;;16.70;39.19
76519;BME280;67029;51.054;13.798;2023-05-10T00:15:19;99823.72;;;16.65;39.11
76519;BME280;67029;51.054;13.798;2023-05-10T00:17:48;99820.53;;;16.83;38.72
76519;BME280;67029;51.054;13.798;2023-05-10T00:20:19;99818.19;;;16.85;38.89
76519;BME280;67029;51.054;13.798;2023-05-10T00:22:49;99824.92;;;16.66;39.32
76519;BME280;67029;51.054;13.798;2023-05-10T00:25:19;99824.88;;;16.64;39.11
76519;BME280;67029;51.054;13.798;2023-05-10T00:27:49;99816.67;;;16.51;39.27
76519;BME280;67029;51.054;13.798;2023-05-10T00:30:19;99822.66;;;16.47;39.44
76519;BME280;67029;51.054;13.798;2023-05-10T00:32:49;99812.82;;;16.51;39.19
76519;BME280;67029;51.054;13.798;2023-05-10T00:35:19;99816.97;;;16.56;39.07
76519;BME280;67029;51.054;13.798;2023-05-10T00:37:49;99814.12;;;16.55;39.26
76519;BME280;67029;51.054;13.798;2023-05-10T00:40:19;99815.70;;;16.46;39.22
76519;BME280;67029;51.054;13.798;2023-05-10T00:42:49;99811.58;;;16.47;39.20
76519;BME280;67029;51.054;13.798;2023-05-10T00:45:20;99806.62;;;16.53;39.13
76519;BME280;67029;51.054;13.798;2023-05-10T00:47:50;99800.42;;;16.56;39.25
76519;BME280;67029;51.054;13.798;2023-05-10T00:50:20;99801.91;;;16.52;39.00
76519;BME280;67029;51.054;13.798;2023-05-10T00:52:51;99806.20;;;16.53;39.03
76519;BME280;67029;51.054;13.798;2023-05-10T00:55:21;99805.62;;;16.45;39.28
76519;BME280;67029;51.054;13.798;2023-05-10T00:57:52;99802.23;;;16.39;39.11
76519;BME280;67029;51.054;13.798;2023-05-10T01:00:21;99803.62;;;16.38;39.45
76519;BME280;67029;51.054;13.798;2023-05-10T01:02:53;99798.42;;;16.42;39.32
76519;BME280;67029;51.054;13.798;2023-05-10T01:05:24;99797.73;;;16.27;39.35
76519;BME280;67029;51.054;13.798;2023-05-10T01:07:52;99793.09;;;16.24;39.39
76519;BME280;67029;51.054;13.798;2023-05-10T01:10:22;99799.12;;;16.25;39.28
76519;BME280;67029;51.054;13.798;2023-05-10T01:12:52;99795.42;;;16.35;39.03
76519;BME280;67029;51.054;13.798;2023-05-10T01:15:22;99797.57;;;16.27;39.18
76519;BME280;67029;51.054;13.798;2023-05-10T01:17:53;99797.45;;;16.22;39.36
76519;BME280;67029;51.054;13.798;2023-05-10T01:20:24;99797.58;;;16.29;39.05
76519;BME280;67029;51.054;13.798;2023-05-10T01:31:03;99797.28;;;16.24;38.93
76519;BME280;67029;51.054;13.798;2023-05-10T01:33:15;99796.34;;;16.26;39.02
76519;BME280;67029;51.054;13.798;2023-05-10T01:35:32;99800.41;;;16.26;39.14
76519;BME280;67029;51.054;13.798;2023-05-10T01:40:36;99786.65;;;16.18;39.41
76519;BME280;67029;51.054;13.798;2023-05-10T01:43:01;99786.22;;;16.20;39.12
76519;BME280;67029;51.054;13.798;2023-05-10T01:45:41;99785.69;;;16.09;39.47
76519;BME280;67029;51.054;13.798;2023-05-10T01:48:05;99787.59;;;16.10;39.18
76519;BME280;67029;51.054;13.798;2023-05-10T01:50:30;99786.19;;;16.07;39.40
76519;BME280;67029;51.054;13.798;2023-05-10T01:53:01;99784.52;;;16.08;39.41
76519;BME280;67029;51.054;13.798;2023-05-10T01:55:35;99784.22;;;16.15;39.37
76519;BME280;67029;51.054;13.798;2023-05-10T01:58:07;99786.11;;;16.11;39.41
76519;BME280;67029;51.054;13.798;2023-05-10T02:00:32;99783.36;;;16.02;39.49
76519;BME280;67029;51.054;13.798;2023-05-10T02:03:05;99786.34;;;16.05;39.83
76519;BME280;67029;51.054;13.798;2023-05-10T02:05:32;99787.11;;;16.02;39.48
76519;BME280;67029;51.054;13.798;2023-05-10T02:08:05;99783.03;;;15.92;39.87
76519;BME280;67029;51.054;13.798;2023-05-10T02:10:36;99782.45;;;15.80;39.88
76519;BME280;67029;51.054;13.798;2023-05-10T02:13:05;99780.17;;;15.85;39.88
76519;BME280;67029;51.054;13.798;2023-05-10T02:15:34;99781.59;;;15.78;39.96
76519;BME280;67029;51.054;13.798;2023-05-10T02:18:04;99781.21;;;15.73;40.51
76519;BME280;67029;51.054;13.798;2023-05-10T02:20:35;99779.91;;;15.71;40.23
76519;BME280;67029;51.054;13.798;2023-05-10T02:23:05;99775.55;;;15.76;40.07
76519;BME280;67029;51.054;13.798;2023-05-10T02:25:36;99774.86;;;15.66;40.37
76519;BME280;67029;51.054;13.798;2023-05-10T02:28:06;99772.62;;;15.62;40.73
76519;BME280;67029;51.054;13.798;2023-05-10T02:30:36;99766.34;;;15.70;40.36
76519;BME280;67029;51.054;13.798;2023-05-10T02:33:06;99775.94;;;15.73;40.19
76519;BME280;67029;51.054;13.798;2023-05-10T02:35:38;99770.27;;;15.68;40.62
76519;BME280;67029;51.054;13.798;2023-05-10T02:38:08;99772.52;;;15.63;40.84
76519;BME280;67029;51.054;13.798;2023-05-10T02:40:38;99778.91;;;15.64;40.65
76519;BME280;67029;51.054;13.798;2023-05-10T02:43:12;99777.15;;;15.66;40.47
76519;BME280;67029;51.054;13.798;2023-05-10T02:45:39;99771.06;;;15.59;40.77
76519;BME280;67029;51.054;13.798;2023-05-10T02:48:09;99774.99;;;15.60;40.73
76519;BME280;67029;51.054;13.798;2023-05-10T02:50:44;99767.97;;;15.60;40.78
76519;BME280;67029;51.054;13.798;2023-05-10T02:53:15;99772.62;;;15.62;40.77
76519;BME280;67029;51.054;13.798;2023-05-10T02:55:41;99772.61;;;15.65;40.82
76519;BME280;67029;51.054;13.798;2023-05-10T02:58:10;99766.66;;;15.66;40.78
76519;BME280;67029;51.054;13.798;2023-05-10T03:00:40;99768.17;;;15.59;41.24
76519;BME280;67029;51.054;13.798;2023-05-10T03:03:10;99774.53;;;15.40;41.45
76519;BME280;67029;51.054;13.798;2023-05-10T03:05:40;99772.41;;;15.37;41.36
76519;BME280;67029;51.054;13.798;2023-05-10T03:08:11;99774.00;;;15.45;41.24
76519;BME280;67029;51.054;13.798;2023-05-10T03:13:39;99775.44;;;15.38;41.62
76519;BME280;67029;51.054;13.798;2023-05-10T03:18:17;99776.33;;;15.25;42.48
76519;BME280;67029;51.054;13.798;2023-05-10T03:20:47;99778.19;;;15.17;41.95
76519;BME280;67029;51.054;13.798;2023-05-10T03:23:34;99773.81;;;15.18;41.84
76519;BME280;67029;51.054;13.798;2023-05-10T03:25:46;99773.40;;;15.18;42.77
76519;BME280;67029;51.054;13.798;2023-05-10T03:28:15;99773.06;;;15.18;42.21
76519;BME280;67029;51.054;13.798;2023-05-10T03:30:44;99773.11;;;15.12;42.26
76519;BME280;67029;51.054;13.798;2023-05-10T03:33:14;99773.86;;;15.09;42.44
76519;BME280;67029;51.054;13.798;2023-05-10T03:35:44;99764.42;;;15.11;42.64
76519;BME280;67029;51.054;13.798;2023-05-10T03:38:14;99768.20;;;15.16;42.29
76519;BME280;67029;51.054;13.798;2023-05-10T03:40:44;99764.00;;;15.25;42.35
76519;BME280;67029;51.054;13.798;2023-05-10T03:43:14;99761.83;;;15.10;42.41
76519;BME280;67029;51.054;13.798;2023-05-10T03:45:45;99759.94;;;15.12;42.49
76519;BME280;67029;51.054;13.798;2023-05-10T03:48:15;99762.02;;;15.21;42.22
76519;BME280;67029;51.054;13.798;2023-05-10T03:50:45;99766.47;;;15.23;42.42
76519;BME280;67029;51.054;13.798;2023-05-10T03:53:15;99765.38;;;15.22;42.27
76519;BME280;67029;51.054;13.798;2023-05-10T03:55:45;99770.00;;;15.26;42.62
76519;BME280;67029;51.054;13.798;2023-05-10T03:58:15;99774.36;;;15.27;42.54
76519;BME280;67029;51.054;13.798;2023-05-10T04:00:45;99775.47;;;15.25;42.51
76519;BME280;67029;51.054;13.798;2023-05-10T04:03:15;99774.09;;;15.20;42.78
76519;BME280;67029;51.054;13.798;2023-05-10T04:05:45;99774.20;;;15.21;42.74
76519;BME280;67029;51.054;13.798;2023-05-10T04:08:15;99784.77;;;15.10;42.92
76519;BME280;67029;51.054;13.798;2023-05-10T04:10:45;99778.37;;;15.06;42.99
76519;BME280;67029;51.054;13.798;2023-05-10T04:13:15;99784.49;;;15.03;43.42
76519;BME280;67029;51.054;13.798;2023-05-10T04:15:46;99779.22;;;15.06;43.43
76519;BME280;67029;51.054;13.798;2023-05-10T04:18:15;99783.06;;;15.02;43.36
76519;BME280;67029;51.054;13.798;2023-05-10T04:20:45;99784.79;;;14.95;43.74
76519;BME280;67029;51.054;13.798;2023-05-10T04:23:15;99783.41;;;15.04;43.72
76519;BME280;67029;51.054;13.798;2023-05-10T04:25:45;99775.61;;;15.10;43.44
76519;BME280;67029;51.054;13.798;2023-05-10T04:28:15;99775.89;;;15.03;43.58
76519;BME280;67029;51.054;13.798;2023-05-10T04:30:45;99775.70;;;15.01;43.41
76519;BME280;67029;51.054;13.798;2023-05-10T04:33:16;99778.64;;;15.00;43.83
76519;BME280;67029;51.054;13.798;2023-05-10T04:35:46;99784.07;;;15.08;43.58
76519;BME280;67029;51.054;13.798;2023-05-10T04:38:16;99788.61;;;15.10;43.49
76519;BME280;67029;51.054;13.798;2023-05-10T04:40:46;99783.70;;;15.24;43.41
76519;BME280;67029;51.054;13.798;2023-05-10T04:43:17;99776.48;;;15.28;43.14
76519;BME280;67029;51.054;13.798;2023-05-10T04:45:47;99772.37;;;15.32;43.22
76519;BME280;67029;51.054;13.798;2023-05-10T04:48:17;99775.55;;;15.38;43.36
76519;BME280;67029;51.054;13.798;2023-05-10T04:50:49;99766.52;;;15.48;43.05
76519;BME280;67029;51.054;13.798;2023-05-10T04:53:17;99763.09;;;15.49;43.03
76519;BME280;67029;51.054;13.798;2023-05-10T04:55:47;99762.88;;;15.51;43.23
76519;BME280;67029;51.054;13.798;2023-05-10T04:58:17;99755.98;;;15.59;43.20
76519;BME280;67029;51.054;13.798;2023-05-10T05:00:47;99766.23;;;15.59;43.10
76519;BME280;67029;51.054;13.798;2023-05-10T05:03:17;99756.53;;;15.66;42.92
76519;BME280;67029;51.054;13.798;2023-05-10T05:05:47;99754.81;;;15.68;42.94
76519;BME280;67029;51.054;13.798;2023-05-10T05:08:18;99766.80;;;15.74;43.01
76519;BME280;67029;51.054;13.798;2023-05-10T05:10:48;99762.32;;;15.70;43.18
76519;BME280;67029;51.054;13.798;2023-05-10T05:13:18;99757.70;;;15.63;43.27
76519;BME280;67029;51.054;13.798;2023-05-10T05:15:48;99755.98;;;15.71;43.19
76519;BME280;67029;51.054;13.798;2023-05-10T05:18:18;99758.88;;;15.82;42.98
76519;BME280;67029;51.054;13.798;2023-05-10T05:20:48;99757.98;;;15.86;42.94
76519;BME280;67029;51.054;13.798;2023-05-10T05:23:18;99761.16;;;15.94;42.93
76519;BME280;67029;51.054;13.798;2023-05-10T05:25:48;99759.23;;;15.96;43.04
76519;BME280;67029;51.054;13.798;2023-05-10T05:28:18;99762.77;;;15.95;43.02
76519;BME280;67029;51.054;13.798;2023-05-10T05:30:48;99762.92;;;16.03;42.88
76519;BME280;67029;51.054;13.798;2023-05-10T05:33:18;99753.53;;;16.02;43.05
76519;BME280;67029;51.054;13.798;2023-05-10T05:35:48;99757.02;;;16.04;43.07
76519;BME280;67029;51.054;13.798;2023-05-10T05:38:18;99765.62;;;16.04;43.26
76519;BME280;67029;51.054;13.798;2023-05-10T05:40:48;99761.79;;;16.17;42.93
76519;BME280;67029;51.054;13.798;2023-05-10T05:43:18;99751.80;;;16.25;42.76
76519;BME280;67029;51.054;13.798;2023-05-10T05:45:49;99760.39;;;16.33;42.76
76519;BME280;67029;51.054;13.798;2023-05-10T05:48:18;99752.28;;;16.44;42.63
76519;BME280;67029;51.054;13.798;2023-05-10T05:50:48;99762.14;;;16.55;42.56
76519;BME280;67029;51.054;13.798;2023-05-10T05:53:18;99756.42;;;16.72;42.20
76519;BME280;67029;51.054;13.798;2023-05-10T05:55:55;99761.65;;;16.76;42.14
76519;BME280;67029;51.054;13.798;2023-05-10T05:58:19;99757.27;;;16.72;42.09
76519;BME280;67029;51.054;13.798;2023-05-10T06:00:49;99763.42;;;16.78;42.11
76519;BME280;67029;51.054;13.798;2023-05-10T06:03:19;99768.47;;;16.94;41.73
76519;BME280;67029;51.054;13.798;2023-05-10T06:05:49;99763.97;;;17.02;41.70
76519;BME280;67029;51.054;13.798;2023-05-10T06:08:19;99774.28;;;17.03;41.68
76519;BME280;67029;51.054;13.798;2023-05-10T06:10:49;99771.87;;;17.07;41.45
76519;BME280;67029;51.054;13.798;2023-05-10T06:13:19;99769.70;;;17.02;41.67
76519;BME280;67029;51.054;13.798;2023-05-10T06:15:49;99775.34;;;16.85;42.10
76519;BME280;67029;51.054;13.798;2023-05-10T06:18:20;99786.85;;;16.86;41.99
76519;BME280;67029;51.054;13.798;2023-05-10T06:20:50;99778.02;;;16.73;42.07
76519;BME280;67029;51.054;13.798;2023-05-10T06:23:20;99778.22;;;16.88;42.06
76519;BME280;67029;51.054;13.798;2023-05-10T06:25:50;99790.61;;;17.05;41.85
76519;BME280;67029;51.054;13.798;2023-05-10T06:28:20;99780.07;;;17.16;41.52
76519;BME280;67029;51.054;13.798;2023-05-10T06:30:50;99782.36;;;17.20;41.56
76519;BME280;67029;51.054;13.798;2023-05-10T06:33:20;99783.76;;;17.19;41.61
76519;BME280;67029;51.054;13.798;2023-05-10T06:35:50;99796.41;;;17.33;41.50
76519;BME280;67029;51.054;13.798;2023-05-10T06:38:20;99776.56;;;17.37;41.26
76519;BME280;67029;51.054;13.798;2023-05-10T06:40:50;99783.94;;;17.46;41.11
76519;BME280;67029;51.054;13.798;2023-05-10T06:43:20;99785.84;;;17.65;40.90
76519;BME280;67029;51.054;13.798;2023-05-10T06:45:50;99787.44;;;17.70;40.69
76519;BME280;67029;51.054;13.798;2023-05-10T06:48:20;99780.25;;;17.77;40.53
76519;BME280;67029;51.054;13.798;2023-05-10T06:50:50;99786.11;;;17.85;40.47
76519;BME280;67029;51.054;13.798;2023-05-10T06:53:20;99786.42;;;17.95;40.26
76519;BME280;67029;51.054;13.798;2023-05-10T06:55:50;99783.94;;;17.95;40.28
76519;BME280;67029;51.054;13.798;2023-05-10T06:58:20;99781.83;;;17.87;40.41
76519;BME280;67029;51.054;13.798;2023-05-10T07:00:50;99792.16;;;17.83;40.57
76519;BME280;67029;51.054;13.798;2023-05-10T07:03:20;99790.48;;;17.85;40.68
76519;BME280;67029;51.054;13.798;2023-05-10T07:05:50;99781.16;;;17.98;40.62
76519;BME280;67029;51.054;13.798;2023-05-10T07:08:20;99788.39;;;18.17;40.16
76519;BME280;67029;51.054;13.798;2023-05-10T07:10:50;99791.20;;;18.12;40.34
76519;BME280;67029;51.054;13.798;2023-05-10T07:13:20;99793.92;;;18.18;40.27
76519;BME280;67029;51.054;13.798;2023-05-10T07:15:50;99779.19;;;18.17;40.24
76519;BME280;67029;51.054;13.798;2023-05-10T07:18:20;99791.66;;;18.30;40.07
76519;BME280;67029;51.054;13.798;2023-05-10T07:20:50;99800.73;;;18.38;39.77
76519;BME280;67029;51.054;13.798;2023-05-10T07:23:20;99780.83;;;18.44;39.82
76519;BME280;67029;51.054;13.798;2023-05-10T07:25:51;99783.98;;;18.50;39.84
76519;BME280;67029;51.054;13.798;2023-05-10T07:28:21;99780.07;;;18.53;39.67
76519;BME280;67029;51.054;13.798;2023-05-10T07:30:51;99788.43;;;18.70;39.38
76519;BME280;67029;51.054;13.798;2023-05-10T07:33:21;99779.95;;;18.82;39.23
76519;BME280;67029;51.054;13.798;2023-05-10T07:35:51;99785.16;;;18.81;39.20
76519;BME280;67029;51.054;13.798;2023-05-10T07:38:21;99792.02;;;18.78;39.25
76519;BME280;67029;51.054;13.798;2023-05-10T07:40:51;99788.02;;;18.71;39.45
76519;BME280;67029;51.054;13.798;2023-05-10T07:43:21;99789.22;;;18.89;39.27
76519;BME280;67029;51.054;13.798;2023-05-10T07:45:51;99791.44;;;19.00;39.17
76519;BME280;67029;51.054;13.798;2023-05-10T07:48:21;99780.16;;;19.20;38.93
76519;BME280;67029;51.054;13.798;2023-05-10T07:50:51;99780.45;;;19.49;38.56
76519;BME280;67029;51.054;13.798;2023-05-10T07:53:22;99781.58;;;19.64;37.97
76519;BME280;67029;51.054;13.798;2023-05-10T07:55:54;99775.70;;;19.83;38.09
76519;BME280;67029;51.054;13.798;2023-05-10T07:58:22;99777.06;;;20.15;37.96
76519;BME280;67029;51.054;13.798;2023-05-10T08:00:52;99786.52;;;20.43;36.90
76519;BME280;67029;51.054;13.798;2023-05-10T08:03:22;99783.58;;;20.68;36.39
76519;BME280;67029;51.054;13.798;2023-05-10T08:05:52;99787.38;;;20.83;36.39
76519;BME280;67029;51.054;13.798;2023-05-10T08:08:22;99778.95;;;21.03;36.09
76519;BME280;67029;51.054;13.798;2023-05-10T08:10:52;99773.64;;;21.26;36.24
76519;BME280;67029;51.054;13.798;2023-05-10T08:13:22;99791.52;;;21.47;34.92
76519;BME280;67029;51.054;13.798;2023-05-10T08:15:52;99774.52;;;21.70;35.25
76519;BME280;67029;51.054;13.798;2023-05-10T08:18:22;99783.81;;;21.90;34.56
76519;BME280;67029;51.054;13.798;2023-05-10T08:20:52;99781.91;;;22.05;34.93
76519;BME280;67029;51.054;13.798;2023-05-10T08:23:22;99778.68;;;22.26;33.97
76519;BME280;67029;51.054;13.798;2023-05-10T08:25:52;99783.73;;;22.19;33.91
76519;BME280;67029;51.054;13.798;2023-05-10T08:28:22;99789.95;;;22.22;34.30
76519;BME280;67029;51.054;13.798;2023-05-10T08:30:52;99797.02;;;22.28;34.05
76519;BME280;67029;51.054;13.798;2023-05-10T08:33:23;99790.38;;;22.39;33.98
76519;BME280;67029;51.054;13.798;2023-05-10T08:35:52;99783.19;;;22.64;33.80
76519;BME280;67029;51.054;13.798;2023-05-10T08:38:22;99782.44;;;22.73;33.85
76519;BME280;67029;51.054;13.798;2023-05-10T08:40:54;99795.77;;;23.05;33.76
76519;BME280;67029;51.054;13.798;2023-05-10T08:43:27;99795.13;;;23.43;33.29
76519;BME280;67029;51.054;13.798;2023-05-10T08:45:55;99793.27;;;23.72;33.12
76519;BME280;67029;51.054;13.798;2023-05-10T08:48:26;99792.26;;;24.06;32.63
76519;BME280;67029;51.054;13.798;2023-05-10T08:50:57;99803.17;;;24.45;31.48
76519;BME280;67029;51.054;13.798;2023-05-10T08:53:26;99812.19;;;24.39;31.09
76519;BME280;67029;51.054;13.798;2023-05-10T08:55:57;99807.79;;;24.45;31.14
76519;BME280;67029;51.054;13.798;2023-05-10T08:58:26;99819.79;;;24.69;31.30
76519;BME280;67029;51.054;13.798;2023-05-10T09:00:57;99822.89;;;24.80;30.97
76519;BME280;67029;51.054;13.798;2023-05-10T09:03:27;99820.85;;;25.04;30.94
76519;BME280;67029;51.054;13.798;2023-05-10T09:05:57;99816.64;;;25.09;29.87
76519;BME280;67029;51.054;13.798;2023-05-10T09:08:27;99816.83;;;24.90;30.26
76519;BME280;67029;51.054;13.798;2023-05-10T09:10:57;99825.87;;;25.09;30.48
76519;BME280;67029;51.054;13.798;2023-05-10T09:13:28;99826.31;;;25.29;29.92
76519;BME280;67029;51.054;13.798;2023-05-10T09:15:58;99835.32;;;25.42;30.14
76519;BME280;67029;51.054;13.798;2023-05-10T09:18:28;99827.08;;;25.56;30.03
76519;BME280;67029;51.054;13.798;2023-05-10T09:20:58;99823.96;;;25.71;30.34
76519;BME280;67029;51.054;13.798;2023-05-10T09:23:28;99830.69;;;25.92;29.51
76519;BME280;67029;51.054;13.798;2023-05-10T09:26:05;99829.23;;;25.94;29.30
76519;BME280;67029;51.054;13.798;2023-05-10T09:28:31;99827.91;;;25.88;29.54
76519;BME280;67029;51.054;13.798;2023-05-10T09:30:59;99825.09;;;26.02;29.63
76519;BME280;67029;51.054;13.798;2023-05-10T09:33:43;99825.62;;;26.29;28.92
76519;BME280;67029;51.054;13.798;2023-05-10T09:36:08;99825.34;;;26.50;29.19
76519;BME280;67029;51.054;13.798;2023-05-10T09:38:44;99837.92;;;26.60;28.89
76519;BME280;67029;51.054;13.798;2023-05-10T09:41:01;99832.11;;;26.68;28.60
76519;BME280;67029;51.054;13.798;2023-05-10T09:43:39;99843.23;;;26.89;28.57
76519;BME280;67029;51.054;13.798;2023-05-10T09:46:09;99837.53;;;26.99;28.35
76519;BME280;67029;51.054;13.798;2023-05-10T09:48:32;99834.67;;;27.27;27.95
76519;BME280;67029;51.054;13.798;2023-05-10T09:51:02;99836.72;;;27.59;27.84
76519;BME280;67029;51.054;13.798;2023-05-10T09:53:32;99832.61;;;27.41;27.28
76519;BME280;67029;51.054;13.798;2023-05-10T09:56:03;99832.69;;;27.17;27.40
76519;BME280;67029;51.054;13.798;2023-05-10T09:58:36;99839.36;;;26.88;27.58
76519;BME280;67029;51.054;13.798;2023-05-10T10:01:03;99843.75;;;27.03;27.64
76519;BME280;67029;51.054;13.798;2023-05-10T10:03:40;99825.80;;;26.74;27.77
76519;BME280;67029;51.054;13.798;2023-05-10T10:06:07;99840.44;;;26.83;28.31
76519;BME280;67029;51.054;13.798;2023-05-10T10:08:34;99831.16;;;26.85;28.04
76519;BME280;67029;51.054;13.798;2023-05-10T10:11:04;99834.34;;;27.09;28.04
76519;BME280;67029;51.054;13.798;2023-05-10T10:13:34;99824.48;;;27.46;27.66
76519;BME280;67029;51.054;13.798;2023-05-10T10:16:04;99842.25;;;27.46;27.19
76519;BME280;67029;51.054;13.798;2023-05-10T10:18:36;99828.76;;;27.41;27.27
76519;BME280;67029;51.054;13.798;2023-05-10T10:21:06;99820.84;;;27.47;27.40
76519;BME280;67029;51.054;13.798;2023-05-10T10:23:35;99826.63;;;27.70;26.86
76519;BME280;67029;51.054;13.798;2023-05-10T10:26:06;99821.55;;;27.61;27.71
76519;BME280;67029;51.054;13.798;2023-05-10T10:31:20;99824.45;;;28.42;27.83
76519;BME280;67029;51.054;13.798;2023-05-10T10:33:56;99818.01;;;28.71;26.89
76519;BME280;67029;51.054;13.798;2023-05-10T10:36:07;99816.17;;;28.99;26.17
76519;BME280;67029;51.054;13.798;2023-05-10T10:38:38;99812.73;;;29.20;25.49
76519;BME280;67029;51.054;13.798;2023-05-10T10:41:34;99818.41;;;29.25;25.39
76519;BME280;67029;51.054;13.798;2023-05-10T10:43:38;99820.73;;;28.94;25.72
76519;BME280;67029;51.054;13.798;2023-05-10T10:46:10;99827.59;;;29.00;25.99
76519;BME280;67029;51.054;13.798;2023-05-10T10:48:39;99821.52;;;29.00;25.39
76519;BME280;67029;51.054;13.798;2023-05-10T10:51:09;99828.42;;;29.11;25.49
76519;BME280;67029;51.054;13.798;2023-05-10T10:53:40;99826.77;;;29.06;25.39
76519;BME280;67029;51.054;13.798;2023-05-10T10:56:12;99821.50;;;28.83;25.48
76519;BME280;67029;51.054;13.798;2023-05-10T10:58:49;99823.83;;;28.74;25.53
76519;BME280;67029;51.054;13.798;2023-05-10T11:01:13;99829.86;;;28.47;25.69
76519;BME280;67029;51.054;13.798;2023-05-10T11:06:13;99831.89;;;28.23;25.68
76519;BME280;67029;51.054;13.798;2023-05-10T11:08:43;99831.73;;;28.18;26.33
76519;BME280;67029;51.054;13.798;2023-05-10T11:11:14;99821.08;;;27.92;25.95
76519;BME280;67029;51.054;13.798;2023-05-10T11:13:45;99831.03;;;27.81;26.30
76519;BME280;67029;51.054;13.798;2023-05-10T11:16:24;99830.15;;;27.88;26.28
76519;BME280;67029;51.054;13.798;2023-05-10T11:18:53;99825.80;;;27.97;26.12
76519;BME280;67029;51.054;13.798;2023-05-10T11:21:15;99823.91;;;28.18;26.15
76519;BME280;67029;51.054;13.798;2023-05-10T11:23:52;99824.35;;;28.35;25.95
76519;BME280;67029;51.054;13.798;2023-05-10T11:26:15;99829.88;;;28.53;25.86
76519;BME280;67029;51.054;13.798;2023-05-10T11:28:47;99839.76;;;28.64;25.45
76519;BME280;67029;51.054;13.798;2023-05-10T11:31:17;99828.99;;;28.59;25.70
76519;BME280;67029;51.054;13.798;2023-05-10T11:33:49;99834.89;;;28.88;25.27
76519;BME280;67029;51.054;13.798;2023-05-10T11:36:25;99829.72;;;29.03;25.86
76519;BME280;67029;51.054;13.798;2023-05-10T11:38:48;99831.30;;;29.44;25.43
76519;BME280;67029;51.054;13.798;2023-05-10T11:41:19;99831.68;;;29.73;24.94
76519;BME280;67029;51.054;13.798;2023-05-10T11:43:52;99837.51;;;29.86;24.40
76519;BME280;67029;51.054;13.798;2023-05-10T11:46:20;99836.12;;;30.02;23.92
76519;BME280;67029;51.054;13.798;2023-05-10T11:48:50;99835.57;;;29.82;23.89
76519;BME280;67029;51.054;13.798;2023-05-10T11:51:23;99836.59;;;29.70;24.49
76519;BME280;67029;51.054;13.798;2023-05-10T11:53:53;99835.59;;;29.44;24.55
76519;BME280;67029;51.054;13.798;2023-05-10T11:56:21;99835.65;;;29.62;24.67
76519;BME280;67029;51.054;13.798;2023-05-10T11:58:54;99835.89;;;29.74;24.67
76519;BME280;67029;51.054;13.798;2023-05-10T12:01:23;99850.30;;;30.08;24.79
76519;BME280;67029;51.054;13.798;2023-05-10T12:03:54;99839.39;;;29.88;24.34
76519;BME280;67029;51.054;13.798;2023-05-10T12:06:26;99844.28;;;29.93;24.53
76519;BME280;67029;51.054;13.798;2023-05-10T12:08:53;99858.39;;;30.11;24.21
76519;BME280;67029;51.054;13.798;2023-05-10T12:11:27;99838.52;;;30.21;23.48
76519;BME280;67029;51.054;13.798;2023-05-10T12:13:55;99848.21;;;30.35;24.16
76519;BME280;67029;51.054;13.798;2023-05-10T12:16:28;99838.05;;;30.44;24.00
76519;BME280;67029;51.054;13.798;2023-05-10T12:18:58;99835.17;;;30.39;23.54
76519;BME280;67029;51.054;13.798;2023-05-10T12:21:29;99841.24;;;30.14;23.82
76519;BME280;67029;51.054;13.798;2023-05-10T12:24:02;99847.70;;;30.11;24.03
76519;BME280;67029;51.054;13.798;2023-05-10T12:26:29;99850.84;;;29.49;24.29
76519;BME280;67029;51.054;13.798;2023-05-10T12:29:18;99850.17;;;29.68;24.31
76519;BME280;67029;51.054;13.798;2023-05-10T12:31:29;99850.77;;;29.45;24.72
76519;BME280;67029;51.054;13.798;2023-05-10T12:33:59;99847.16;;;29.50;24.59
76519;BME280;67029;51.054;13.798;2023-05-10T12:36:29;99844.59;;;29.69;24.74
76519;BME280;67029;51.054;13.798;2023-05-10T12:39:02;99850.55;;;30.09;24.39
76519;BME280;67029;51.054;13.798;2023-05-10T12:41:29;99852.48;;;29.89;24.26
76519;BME280;67029;51.054;13.798;2023-05-10T12:43:59;99855.03;;;29.89;24.28
76519;BME280;67029;51.054;13.798;2023-05-10T12:46:29;99854.42;;;29.77;24.52
76519;BME280;67029;51.054;13.798;2023-05-10T12:48:59;99851.35;;;29.60;24.92
76519;BME280;67029;51.054;13.798;2023-05-10T12:51:29;99858.07;;;29.82;24.79
76519;BME280;67029;51.054;13.798;2023-05-10T12:53:59;99854.03;;;30.11;24.49
76519;BME280;67029;51.054;13.798;2023-05-10T12:56:29;99865.50;;;30.12;24.14
76519;BME280;67029;51.054;13.798;2023-05-10T12:58:59;99868.05;;;30.06;24.71
76519;BME280;67029;51.054;13.798;2023-05-10T13:01:29;99863.42;;;30.17;24.15
76519;BME280;67029;51.054;13.798;2023-05-10T13:04:00;99863.32;;;30.20;24.51
76519;BME280;67029;51.054;13.798;2023-05-10T13:06:30;99862.81;;;30.36;24.07
76519;BME280;67029;51.054;13.798;2023-05-10T13:09:00;99870.02;;;30.17;24.32
76519;BME280;67029;51.054;13.798;2023-05-10T13:11:30;99861.27;;;30.33;24.20
76519;BME280;67029;51.054;13.798;2023-05-10T13:14:00;99861.20;;;30.51;24.10
76519;BME280;67029;51.054;13.798;2023-05-10T13:16:31;99859.59;;;30.54;23.76
76519;BME280;67029;51.054;13.798;2023-05-10T13:19:00;99858.06;;;29.96;24.35
76519;BME280;67029;51.054;13.798;2023-05-10T13:21:30;99861.11;;;30.04;24.54
76519;BME280;67029;51.054;13.798;2023-05-10T13:24:00;99862.14;;;30.18;24.36